This is the latest recevied weather packets stored in our database for station/object IU5JAE-13. If no packets are shown the sender has not sent any weather packets the latest 10 day(s).
| Time | Temp. | Humidity | Pressure | Rain* | Wind** | Luminosity | Snow |
|---|---|---|---|---|---|---|---|
| 1788065421 | 17.22° C | 60% | 1016.5 hPa | 0 mm | - | 6 W/m² | - |
| 1788064819 | 17.22° C | 60% | 1016.5 hPa | 0 mm | - | 3 W/m² | - |
| 1788064219 | 17.22° C | 58% | 1016.4 hPa | 0 mm | - | 1 W/m² | - |
| 1788063634 | 17.22° C | 59% | 1016.4 hPa | 0 mm | - | 0 W/m² | - |
| 1788063031 | 16.67° C | 60% | 1016.7 hPa | 0 mm | - | 0 W/m² | - |
| 1788062429 | 17.22° C | 60% | 1016.6 hPa | 0 mm | - | 0 W/m² | - |
| 1788061826 | 17.22° C | 59% | 1016.7 hPa | 0 mm | - | 0 W/m² | - |
| 1788061224 | 16.67° C | 62% | 1016.6 hPa | 0 mm | - | 0 W/m² | - |
| 1788060622 | 16.67° C | 63% | 1016.5 hPa | 0 mm | - | 0 W/m² | - |
| 1788060019 | 16.67° C | 63% | 1016.6 hPa | 0 mm | - | 0 W/m² | - |
| 1788059417 | 16.11° C | 64% | 1016.6 hPa | 0 mm | - | 0 W/m² | - |
| 1788058834 | 16.11° C | 65% | 1016.6 hPa | 0 mm | - | 0 W/m² | - |
| 1788058232 | 16.11° C | 65% | 1016.5 hPa | 0 mm | - | 0 W/m² | - |
| 1788057630 | 16.11° C | 65% | 1016.6 hPa | 0 mm | - | 0 W/m² | - |
| 1788057027 | 16.11° C | 66% | 1016.7 hPa | 0 mm | - | 0 W/m² | - |
| 1788056425 | 15.56° C | 67% | 1016.7 hPa | 0 mm | - | 0 W/m² | - |
| 1788055822 | 15.56° C | 68% | 1016.8 hPa | 0 mm | - | 0 W/m² | - |
| 1788055220 | 16.11° C | 68% | 1017 hPa | 0 mm | - | 0 W/m² | - |
| 1788054618 | 16.11° C | 68% | 1016.9 hPa | 0 mm | - | 0 W/m² | - |
| 1788054035 | 16.67° C | 66% | 1017.1 hPa | 0 mm | - | 0 W/m² | - |
| 1788053433 | 16.67° C | 64% | 1017.1 hPa | 0 mm | - | 0 W/m² | - |
| 1788052830 | 16.67° C | 67% | 1017.2 hPa | 0 mm | - | 0 W/m² | - |
| 1788052228 | 16.67° C | 64% | 1017 hPa | 0 mm | - | 0 W/m² | - |
| 1788051626 | 16.67° C | 66% | 1017.1 hPa | 0 mm | - | 0 W/m² | - |
| 1788051023 | 17.22° C | 63% | 1017.3 hPa | 0 mm | - | 0 W/m² | - |
* Rain latest hour (hover to see other rain measurements)
** Current wind speed in m/s (hover to see current wind gust speed)